createdAt,value
2018-09-11T00:00:05.619Z,172.00
2018-09-11T00:01:05.638Z,160.00
2018-09-11T00:02:05.643Z,156.00
2018-09-11T00:03:05.663Z,148.00
2018-09-11T00:04:05.699Z,144.00
2018-09-11T00:05:05.704Z,144.00
2018-09-11T00:06:05.743Z,148.00
2018-09-11T00:07:05.755Z,160.00
2018-09-11T00:08:05.764Z,172.00
2018-09-11T00:09:05.770Z,180.00
2018-09-11T00:10:05.804Z,188.00
2018-09-11T00:11:05.837Z,200.00
2018-09-11T00:12:05.853Z,220.00
2018-09-11T00:13:05.878Z,240.00
2018-09-11T00:14:05.919Z,252.00
2018-09-11T00:15:05.903Z,260.00
2018-09-11T00:16:05.938Z,264.00
2018-09-11T00:17:05.958Z,284.00
2018-09-11T00:18:05.965Z,324.00
2018-09-11T00:19:05.992Z,376.00
2018-09-11T00:20:06.018Z,424.00
2018-09-11T00:21:06.043Z,472.00
2018-09-11T00:22:06.032Z,504.00
2018-09-11T00:23:06.065Z,528.00
2018-09-11T00:24:06.098Z,556.00
2018-09-11T00:25:06.107Z,584.00
2018-09-11T00:26:06.129Z,592.00
2018-09-11T00:27:06.146Z,592.00
2018-09-11T00:28:06.169Z,592.00
2018-09-11T00:29:06.206Z,592.00
2018-09-11T00:30:06.238Z,600.00
2018-09-11T00:31:06.227Z,600.00
2018-09-11T00:32:06.260Z,604.00
2018-09-11T00:33:06.284Z,592.00
2018-09-11T00:34:06.305Z,584.00
2018-09-11T00:35:06.308Z,584.00
2018-09-11T00:36:06.329Z,588.00
2018-09-11T00:37:06.363Z,596.00
2018-09-11T00:38:06.382Z,604.00
2018-09-11T00:39:06.390Z,628.00
2018-09-11T00:40:06.411Z,632.00
2018-09-11T00:41:06.419Z,632.00
2018-09-11T00:42:06.452Z,640.00
2018-09-11T00:43:06.471Z,640.00
2018-09-11T00:44:06.521Z,644.00
2018-09-11T00:45:06.528Z,648.00
2018-09-11T00:46:06.532Z,656.00
2018-09-11T00:47:06.555Z,664.00
2018-09-11T00:48:06.578Z,664.00
2018-09-11T00:49:06.596Z,672.00
2018-09-11T00:50:06.617Z,680.00
2018-09-11T00:51:06.637Z,688.00
2018-09-11T00:52:06.646Z,692.00
2018-09-11T00:53:06.667Z,696.00
2018-09-11T00:54:06.748Z,696.00
2018-09-11T00:55:06.736Z,696.00
2018-09-11T00:56:06.741Z,700.00
2018-09-11T00:57:06.779Z,716.00
2018-09-11T00:58:06.771Z,724.00
2018-09-11T00:59:06.791Z,740.00
2018-09-11T01:00:06.823Z,752.00
2018-09-11T01:01:06.846Z,748.00
2018-09-11T01:02:06.882Z,748.00
2018-09-11T01:03:06.885Z,756.00
2018-09-11T01:04:06.911Z,776.00
2018-09-11T01:05:06.927Z,788.00
2018-09-11T01:06:06.947Z,788.00
2018-09-11T01:07:06.967Z,780.00
2018-09-11T01:08:07.040Z,768.00
2018-09-11T01:09:07.027Z,772.00
2018-09-11T01:10:07.084Z,788.00
2018-09-11T01:11:07.049Z,804.00
2018-09-11T01:12:07.072Z,828.00
2018-09-11T01:13:07.108Z,852.00
2018-09-11T01:14:07.112Z,880.00
2018-09-11T01:15:07.142Z,904.00
2018-09-11T01:16:07.166Z,916.00
2018-09-11T01:17:07.174Z,908.00
2018-09-11T01:18:07.196Z,896.00
2018-09-11T01:19:07.233Z,872.00
2018-09-11T01:20:07.238Z,860.00
2018-09-11T01:21:07.272Z,856.00
2018-09-11T01:22:07.283Z,864.00
2018-09-11T01:23:07.317Z,876.00
2018-09-11T01:24:07.340Z,892.00
2018-09-11T01:25:07.341Z,908.00
2018-09-11T01:26:07.380Z,928.00
2018-09-11T01:27:07.398Z,964.00
2018-09-11T01:28:07.414Z,996.00
2018-09-11T01:29:07.436Z,1016.00
2018-09-11T01:30:07.446Z,1032.00
2018-09-11T01:31:07.464Z,1036.00
2018-09-11T01:32:07.488Z,1052.00
2018-09-11T01:33:07.532Z,1056.00
2018-09-11T01:34:07.539Z,1064.00
2018-09-11T01:35:07.550Z,1072.00
2018-09-11T01:36:07.571Z,1104.00
2018-09-11T01:37:07.609Z,1168.00
2018-09-11T01:38:07.613Z,1224.00
2018-09-11T01:39:07.634Z,1252.00
2018-09-11T01:40:07.655Z,1252.00
2018-09-11T01:41:07.679Z,1240.00
2018-09-11T01:42:07.713Z,1216.00
2018-09-11T01:43:07.731Z,1180.00
2018-09-11T01:44:07.741Z,1160.00
2018-09-11T01:45:07.760Z,1172.00
2018-09-11T01:46:07.782Z,1232.00
2018-09-11T01:47:07.814Z,1304.00
2018-09-11T01:48:07.814Z,1348.00
2018-09-11T01:49:07.846Z,1360.00
2018-09-11T01:50:07.884Z,1364.00
2018-09-11T01:51:07.912Z,1356.00
2018-09-11T01:52:07.923Z,1308.00
2018-09-11T01:53:07.931Z,1260.00
2018-09-11T01:54:07.951Z,1220.00
2018-09-11T01:55:07.986Z,1184.00
2018-09-11T01:56:08.008Z,1140.00
2018-09-11T01:57:08.034Z,1088.00
2018-09-11T01:58:08.038Z,1048.00
2018-09-11T01:59:08.074Z,1036.00
2018-09-11T02:00:08.098Z,1048.00
2018-09-11T02:01:08.101Z,1072.00
2018-09-11T02:02:08.136Z,1128.00
2018-09-11T02:03:08.154Z,1208.00
2018-09-11T02:04:08.180Z,1316.00
2018-09-11T02:05:08.204Z,1424.00
2018-09-11T02:06:08.197Z,1480.00
2018-09-11T02:07:08.244Z,1480.00
2018-09-11T02:08:08.264Z,1484.00
2018-09-11T02:09:08.262Z,1456.00
2018-09-11T02:10:08.296Z,1420.00
2018-09-11T02:11:08.315Z,1392.00
2018-09-11T02:12:08.346Z,1360.00
2018-09-11T02:13:08.372Z,1328.00
2018-09-11T02:14:08.390Z,1284.00
2018-09-11T02:15:08.409Z,1252.00
2018-09-11T02:16:08.423Z,1208.00
2018-09-11T02:17:08.454Z,1180.00
2018-09-11T02:18:08.466Z,1176.00
2018-09-11T02:19:08.503Z,1180.00
2018-09-11T02:20:08.554Z,1188.00
2018-09-11T02:21:08.543Z,1208.00
2018-09-11T02:22:08.542Z,1232.00
2018-09-11T02:23:08.574Z,1276.00
2018-09-11T02:24:08.606Z,1328.00
2018-09-11T02:25:08.606Z,1372.00
2018-09-11T02:26:08.639Z,1396.00
2018-09-11T02:27:08.676Z,1404.00
2018-09-11T02:28:08.697Z,1396.00
2018-09-11T02:29:08.718Z,1396.00
2018-09-11T02:30:08.728Z,1404.00
2018-09-11T02:31:08.734Z,1424.00
2018-09-11T02:32:08.758Z,1444.00
2018-09-11T02:33:08.810Z,1456.00
2018-09-11T02:34:08.825Z,1476.00
2018-09-11T02:35:09.565Z,1488.00
2018-09-11T02:36:08.857Z,1488.00
2018-09-11T02:37:08.871Z,1476.00
2018-09-11T02:38:08.890Z,1460.00
2018-09-11T02:39:08.923Z,1440.00
2018-09-11T02:40:08.958Z,1440.00
2018-09-11T02:41:08.979Z,1508.00
2018-09-11T02:42:08.976Z,1600.00
2018-09-11T02:43:09.024Z,1620.00
2018-09-11T02:44:09.018Z,1600.00
2018-09-11T02:45:09.052Z,1568.00
2018-09-11T02:46:09.076Z,1528.00
2018-09-11T02:47:09.107Z,1460.00
2018-09-11T02:48:09.118Z,1384.00
2018-09-11T02:49:09.188Z,1368.00
2018-09-11T02:50:09.163Z,1352.00
2018-09-11T02:51:09.201Z,1332.00
2018-09-11T02:52:09.211Z,1320.00
2018-09-11T02:53:09.225Z,1316.00
2018-09-11T02:54:09.264Z,1368.00
2018-09-11T02:55:09.279Z,1340.00
2018-09-11T02:56:09.307Z,1292.00
2018-09-11T02:57:09.317Z,1228.00
2018-09-11T02:58:10.076Z,1144.00
2018-09-11T02:59:09.367Z,1116.00
2018-09-11T03:00:09.381Z,1108.00
2018-09-11T03:01:09.427Z,1128.00
2018-09-11T03:02:09.425Z,1176.00
2018-09-11T03:03:09.450Z,1204.00
2018-09-11T03:04:09.454Z,1204.00
2018-09-11T03:05:09.502Z,1180.00
2018-09-11T03:06:09.521Z,1164.00
2018-09-11T03:07:09.545Z,1160.00
2018-09-11T03:08:09.557Z,1184.00
2018-09-11T03:09:09.593Z,1188.00
2018-09-11T03:10:09.617Z,1200.00
2018-09-11T03:11:09.621Z,1200.00
2018-09-11T03:12:09.644Z,1200.00
2018-09-11T03:13:09.707Z,1224.00
2018-09-11T03:14:09.688Z,1276.00
2018-09-11T03:15:09.719Z,1296.00
2018-09-11T03:16:09.743Z,1328.00
2018-09-11T03:17:09.755Z,1372.00
2018-09-11T03:18:09.789Z,1380.00
2018-09-11T03:19:09.796Z,1408.00
2018-09-11T03:20:09.833Z,1452.00
2018-09-11T03:21:09.845Z,1536.00
2018-09-11T03:22:09.864Z,1648.00
2018-09-11T03:23:09.884Z,1700.00
2018-09-11T03:24:09.907Z,1704.00
2018-09-11T03:25:09.942Z,1648.00
2018-09-11T03:26:09.963Z,1584.00
2018-09-11T03:27:09.976Z,1500.00
2018-09-11T03:28:09.997Z,1432.00
2018-09-11T03:29:10.011Z,1436.00
2018-09-11T03:30:10.051Z,1440.00
2018-09-11T03:31:10.061Z,1428.00
2018-09-11T03:32:10.083Z,1384.00
2018-09-11T03:33:10.116Z,1344.00
2018-09-11T03:34:10.141Z,1312.00
2018-09-11T03:35:10.136Z,1276.00
2018-09-11T03:36:10.185Z,1236.00
2018-09-11T03:37:10.208Z,1208.00
2018-09-11T03:38:10.217Z,1168.00
2018-09-11T03:39:10.236Z,1156.00
2018-09-11T03:40:10.275Z,1180.00
2018-09-11T03:41:10.278Z,1200.00
2018-09-11T03:42:10.304Z,1176.00
2018-09-11T03:43:10.326Z,1176.00
2018-09-11T03:44:10.382Z,1192.00
2018-09-11T03:45:10.387Z,1196.00
2018-09-11T03:46:10.409Z,1172.00
2018-09-11T03:47:10.427Z,1196.00
2018-09-11T03:48:10.435Z,1220.00
2018-09-11T03:49:10.475Z,1208.00
2018-09-11T03:50:10.497Z,1224.00
2018-09-11T03:51:10.503Z,1248.00
2018-09-11T03:52:10.522Z,1300.00
2018-09-11T03:53:10.559Z,1316.00
2018-09-11T03:54:10.577Z,1288.00
2018-09-11T03:55:10.593Z,1272.00
2018-09-11T03:56:10.654Z,1256.00
2018-09-11T03:57:10.635Z,1224.00
2018-09-11T03:58:10.709Z,1180.00
2018-09-11T03:59:10.742Z,1144.00
2018-09-11T04:00:10.702Z,1100.00
2018-09-11T04:01:10.742Z,1044.00
2018-09-11T04:02:10.766Z,988.00
2018-09-11T04:03:10.772Z,952.00
2018-09-11T04:04:10.662Z,924.00
2018-09-11T04:05:10.838Z,888.00
2018-09-11T04:06:10.863Z,860.00
2018-09-11T04:07:10.819Z,832.00
2018-09-11T04:08:10.923Z,804.00
2018-09-11T04:09:10.894Z,780.00
2018-09-11T04:10:10.938Z,768.00
2018-09-11T04:11:10.955Z,764.00
2018-09-11T04:12:10.965Z,760.00
2018-09-11T04:13:10.991Z,752.00
2018-09-11T04:14:11.024Z,748.00
2018-09-11T04:15:11.033Z,740.00
2018-09-11T04:16:11.064Z,728.00
2018-09-11T04:17:11.077Z,716.00
2018-09-11T04:18:11.097Z,708.00
2018-09-11T04:19:11.108Z,696.00
2018-09-11T04:20:11.142Z,684.00
2018-09-11T04:21:11.156Z,680.00
2018-09-11T04:22:11.186Z,676.00
2018-09-11T04:23:11.224Z,676.00
2018-09-11T04:24:11.245Z,684.00
2018-09-11T04:25:11.254Z,692.00
2018-09-11T04:26:11.267Z,704.00
2018-09-11T04:27:11.294Z,712.00
2018-09-11T04:28:11.319Z,720.00
2018-09-11T04:29:11.358Z,724.00
2018-09-11T04:30:11.365Z,752.00
2018-09-11T04:31:11.375Z,776.00
2018-09-11T04:32:11.414Z,804.00
2018-09-11T04:33:11.464Z,820.00
2018-09-11T04:34:11.455Z,840.00
2018-09-11T04:35:11.487Z,852.00
2018-09-11T04:36:11.563Z,872.00
2018-09-11T04:37:11.520Z,896.00
2018-09-11T04:38:11.574Z,916.00
2018-09-11T04:39:11.553Z,940.00
2018-09-11T04:40:11.592Z,968.00
2018-09-11T04:41:11.627Z,984.00
2018-09-11T04:42:11.630Z,996.00
2018-09-11T04:43:11.729Z,1012.00
2018-09-11T04:44:11.666Z,1016.00
2018-09-11T04:45:11.699Z,1000.00
2018-09-11T04:46:11.733Z,964.00
2018-09-11T04:47:11.749Z,924.00
2018-09-11T04:48:11.778Z,912.00
2018-09-11T04:49:11.794Z,932.00
2018-09-11T04:50:11.816Z,1020.00
2018-09-11T04:51:11.827Z,1156.00
2018-09-11T04:52:11.861Z,1316.00
2018-09-11T04:53:11.891Z,1456.00
2018-09-11T04:54:11.893Z,1584.00
2018-09-11T04:55:11.922Z,1668.00
2018-09-11T04:56:11.977Z,1708.00
2018-09-11T04:57:11.961Z,1724.00
2018-09-11T04:58:11.997Z,1732.00
2018-09-11T04:59:12.018Z,1764.00
2018-09-11T05:00:12.015Z,1788.00
2018-09-11T05:01:12.062Z,1836.00
2018-09-11T05:02:12.071Z,1904.00
2018-09-11T05:03:12.111Z,1968.00
2018-09-11T05:04:12.117Z,2012.00
2018-09-11T05:05:12.148Z,2028.00
2018-09-11T05:06:12.159Z,2052.00
2018-09-11T05:07:12.195Z,2068.00
2018-09-11T05:08:12.201Z,2060.00
2018-09-11T05:09:12.225Z,2068.00
2018-09-11T05:10:12.265Z,2080.00
2018-09-11T05:11:12.270Z,2068.00
2018-09-11T05:12:12.304Z,2024.00
2018-09-11T05:13:12.328Z,1928.00
2018-09-11T05:14:12.338Z,1836.00
2018-09-11T05:15:12.357Z,1804.00
2018-09-11T05:16:12.393Z,1800.00
2018-09-11T05:17:12.419Z,1828.00
2018-09-11T05:18:12.427Z,1820.00
2018-09-11T05:19:12.522Z,1780.00
2018-09-11T05:20:12.470Z,1740.00
2018-09-11T05:21:12.506Z,1724.00
2018-09-11T05:22:12.526Z,1708.00
2018-09-11T05:23:12.551Z,1700.00
2018-09-11T05:24:12.577Z,1704.00
2018-09-11T05:25:12.583Z,1712.00
2018-09-11T05:26:12.606Z,1712.00
2018-09-11T05:27:12.647Z,1708.00
2018-09-11T05:28:12.654Z,1676.00
2018-09-11T05:29:12.662Z,1632.00
2018-09-11T05:30:12.714Z,1600.00
2018-09-11T05:31:12.734Z,1588.00
2018-09-11T05:32:12.741Z,1584.00
2018-09-11T05:33:12.773Z,1600.00
2018-09-11T05:34:12.787Z,1616.00
2018-09-11T05:35:12.805Z,1660.00
2018-09-11T05:36:12.841Z,1696.00
2018-09-11T05:37:12.870Z,1720.00
2018-09-11T05:38:12.895Z,1712.00
2018-09-11T05:39:13.010Z,1712.00
2018-09-11T05:40:12.923Z,1720.00
2018-09-11T05:41:12.947Z,1740.00
2018-09-11T05:42:12.966Z,1772.00
2018-09-11T05:43:13.005Z,1792.00
2018-09-11T05:44:13.012Z,1800.00
2018-09-11T05:45:13.051Z,1804.00
2018-09-11T05:46:13.061Z,1788.00
2018-09-11T05:47:13.147Z,1768.00
2018-09-11T05:48:13.114Z,1760.00
2018-09-11T05:49:13.136Z,1764.00
2018-09-11T05:50:13.163Z,1784.00
2018-09-11T05:51:13.170Z,1816.00
2018-09-11T05:52:13.206Z,1824.00
2018-09-11T05:53:13.217Z,1832.00
2018-09-11T05:54:13.237Z,1820.00
2018-09-11T05:55:13.319Z,1812.00
2018-09-11T05:56:13.281Z,1816.00
2018-09-11T05:57:13.319Z,1828.00
2018-09-11T05:58:13.344Z,1840.00
2018-09-11T05:59:13.354Z,1848.00
2018-09-11T06:00:13.373Z,1856.00
2018-09-11T06:01:13.387Z,1860.00
2018-09-11T06:02:13.424Z,1852.00
2018-09-11T06:03:13.440Z,1832.00
2018-09-11T06:04:13.478Z,1792.00
2018-09-11T06:05:13.528Z,1744.00
2018-09-11T06:06:13.511Z,1708.00
2018-09-11T06:07:13.549Z,1696.00
2018-09-11T06:08:13.556Z,1716.00
2018-09-11T06:09:13.577Z,1748.00
2018-09-11T06:10:13.614Z,1820.00
2018-09-11T06:11:13.640Z,1884.00
2018-09-11T06:12:13.649Z,1936.00
2018-09-11T06:13:13.672Z,1988.00
2018-09-11T06:14:13.693Z,2012.00
2018-09-11T06:15:13.724Z,2008.00
2018-09-11T06:16:13.735Z,2012.00
2018-09-11T06:17:13.748Z,2028.00
2018-09-11T06:18:13.784Z,2068.00
2018-09-11T06:19:13.805Z,2160.00
2018-09-11T06:20:13.845Z,2224.00
2018-09-11T06:21:13.867Z,2332.00
2018-09-11T06:22:13.888Z,2400.00
2018-09-11T06:23:13.902Z,2408.00
2018-09-11T06:24:13.931Z,2344.00
2018-09-11T06:25:13.944Z,2288.00
2018-09-11T06:26:13.969Z,2240.00
2018-09-11T06:27:13.994Z,2216.00
2018-09-11T06:28:14.001Z,2236.00
2018-09-11T06:29:14.128Z,2320.00
2018-09-11T06:30:14.060Z,2448.00
2018-09-11T06:31:14.080Z,2564.00
2018-09-11T06:32:14.104Z,2620.00
2018-09-11T06:33:14.128Z,2636.00
2018-09-11T06:34:14.196Z,2608.00
2018-09-11T06:35:14.211Z,2564.00
2018-09-11T06:36:14.196Z,2568.00
2018-09-11T06:37:14.236Z,2620.00
2018-09-11T06:38:14.243Z,2668.00
2018-09-11T06:39:14.253Z,2736.00
2018-09-11T06:40:14.338Z,2780.00
2018-09-11T06:41:14.341Z,2800.00
2018-09-11T06:42:14.322Z,2772.00
2018-09-11T06:43:14.376Z,2732.00
2018-09-11T06:44:14.379Z,2692.00
2018-09-11T06:45:14.414Z,2664.00
2018-09-11T06:46:14.427Z,2664.00
2018-09-11T06:47:14.469Z,2668.00
2018-09-11T06:48:14.474Z,2664.00
2018-09-11T06:49:14.513Z,2652.00
2018-09-11T06:50:14.521Z,2660.00
2018-09-11T06:51:14.544Z,2672.00
2018-09-11T06:52:14.576Z,2688.00
2018-09-11T06:53:14.577Z,2716.00
2018-09-11T06:54:14.612Z,2732.00
2018-09-11T06:55:14.635Z,2756.00
2018-09-11T06:56:14.685Z,2788.00
2018-09-11T06:57:14.699Z,2824.00
2018-09-11T06:58:14.706Z,2872.00
2018-09-11T06:59:14.737Z,2876.00
2018-09-11T07:00:14.765Z,2908.00
2018-09-11T07:01:14.779Z,2940.00
2018-09-11T07:02:14.800Z,2944.00
2018-09-11T07:03:14.822Z,2960.00
2018-09-11T07:04:14.857Z,2976.00
2018-09-11T07:05:14.870Z,3008.00
2018-09-11T07:06:14.911Z,3040.00
2018-09-11T07:07:14.906Z,3084.00
2018-09-11T07:08:14.969Z,3140.00
2018-09-11T07:09:14.964Z,3192.00
2018-09-11T07:10:15.002Z,3240.00
2018-09-11T07:11:15.010Z,3256.00
2018-09-11T07:12:15.045Z,3248.00
2018-09-11T07:13:15.059Z,3244.00
2018-09-11T07:14:15.070Z,3236.00
2018-09-11T07:15:15.118Z,3268.00
2018-09-11T07:16:15.127Z,3324.00
2018-09-11T07:17:15.176Z,3388.00
2018-09-11T07:18:15.191Z,3428.00
2018-09-11T07:19:15.215Z,3456.00
2018-09-11T07:20:15.460Z,3352.00
2018-09-11T07:21:15.245Z,3180.00
2018-09-11T07:22:15.259Z,3012.00
2018-09-11T07:23:15.304Z,2844.00
2018-09-11T07:24:15.306Z,2788.00
2018-09-11T07:25:15.357Z,2712.00
2018-09-11T07:26:15.460Z,2440.00
2018-09-11T07:27:15.387Z,2464.00
2018-09-11T07:28:15.413Z,2512.00
2018-09-11T07:29:15.425Z,2600.00
2018-09-11T07:30:15.480Z,2756.00
2018-09-11T07:31:15.490Z,2964.00
2018-09-11T07:32:15.531Z,3240.00
2018-09-11T07:33:15.548Z,3360.00
2018-09-11T07:34:15.569Z,3464.00
2018-09-11T07:35:15.564Z,3516.00
2018-09-11T07:36:15.620Z,3464.00
2018-09-11T07:37:15.639Z,3740.00
2018-09-11T07:38:15.637Z,3776.00
2018-09-11T07:39:15.673Z,3856.00
2018-09-11T07:40:15.702Z,3804.00
2018-09-11T07:41:15.731Z,3512.00
2018-09-11T07:42:15.744Z,3812.00
2018-09-11T07:43:15.832Z,3868.00
2018-09-11T07:44:15.791Z,3864.00
2018-09-11T07:45:15.814Z,3816.00
2018-09-11T07:46:15.849Z,3828.00
2018-09-11T07:47:15.862Z,3808.00
2018-09-11T07:48:15.896Z,3836.00
2018-09-11T07:49:15.924Z,3888.00
2018-09-11T07:50:15.935Z,3884.00
2018-09-11T07:51:15.944Z,3912.00
2018-09-11T07:52:15.980Z,3872.00
2018-09-11T07:53:16.021Z,3848.00
2018-09-11T07:54:16.030Z,3788.00
2018-09-11T07:55:16.059Z,3764.00
2018-09-11T07:56:16.076Z,3752.00
2018-09-11T07:57:16.103Z,3684.00
2018-09-11T07:58:16.117Z,3656.00
2018-09-11T07:59:16.148Z,3604.00
2018-09-11T08:00:16.174Z,3572.00
2018-09-11T08:01:16.194Z,3496.00
2018-09-11T08:02:16.234Z,3448.00
2018-09-11T08:03:16.245Z,3440.00
2018-09-11T08:04:16.268Z,3444.00
2018-09-11T08:05:16.296Z,3372.00
2018-09-11T08:06:16.322Z,3380.00
2018-09-11T08:07:16.350Z,3392.00
2018-09-11T08:08:16.366Z,3408.00
2018-09-11T08:09:16.374Z,3424.00
2018-09-11T08:10:16.405Z,3492.00
2018-09-11T08:11:16.434Z,3540.00
2018-09-11T08:12:16.555Z,3592.00
2018-09-11T08:13:16.493Z,6604.00
2018-09-11T08:14:16.528Z,9236.00
2018-09-11T08:15:16.547Z,4572.00
2018-09-11T08:16:16.570Z,3744.00
2018-09-11T08:17:16.595Z,3796.00
2018-09-11T08:18:16.617Z,3724.00
2018-09-11T08:19:16.678Z,3752.00
2018-09-11T08:20:16.666Z,6048.00
2018-09-11T08:21:16.663Z,5864.00
2018-09-11T08:22:16.711Z,6584.00
2018-09-11T08:23:16.721Z,6076.00
2018-09-11T08:24:16.746Z,6164.00
2018-09-11T08:25:16.771Z,11160.00
2018-09-11T08:26:16.806Z,11684.00
2018-09-11T08:27:16.827Z,6800.00
2018-09-11T08:28:16.845Z,8412.00
2018-09-11T08:29:16.925Z,14560.00
2018-09-11T08:30:16.907Z,17696.00
2018-09-11T08:31:16.931Z,25408.00
2018-09-11T08:32:16.939Z,26816.00
2018-09-11T08:33:16.980Z,14432.00
2018-09-11T08:34:17.003Z,18528.00
2018-09-11T08:35:17.784Z,23328.00
2018-09-11T08:36:17.049Z,22816.00
2018-09-11T08:37:17.082Z,18688.00
2018-09-11T08:38:17.091Z,15296.00
2018-09-11T08:39:17.112Z,24448.00
2018-09-11T08:40:17.149Z,22080.00
2018-09-11T08:41:17.176Z,20416.00
2018-09-11T08:42:17.186Z,14208.00
2018-09-11T08:43:17.210Z,7860.00
2018-09-11T08:44:17.236Z,6680.00
2018-09-11T08:45:17.300Z,4972.00
2018-09-11T08:46:17.286Z,9352.00
2018-09-11T08:47:17.327Z,8488.00
2018-09-11T08:48:17.353Z,4392.00
2018-09-11T08:49:17.351Z,3944.00
2018-09-11T08:50:17.405Z,3996.00
2018-09-11T08:51:17.414Z,3816.00
2018-09-11T08:52:17.469Z,3712.00
2018-09-11T08:53:17.475Z,3624.00
2018-09-11T08:54:17.489Z,3628.00
2018-09-11T08:55:17.517Z,3604.00
2018-09-11T08:56:17.541Z,3560.00
2018-09-11T08:57:17.567Z,3472.00
2018-09-11T08:58:17.609Z,3508.00
2018-09-11T08:59:17.634Z,3476.00
2018-09-11T09:00:17.646Z,3420.00
2018-09-11T09:01:17.683Z,3536.00
2018-09-11T09:02:17.704Z,3724.00
2018-09-11T09:03:17.723Z,4028.00
2018-09-11T09:04:17.761Z,4396.00
2018-09-11T09:05:17.769Z,4764.00
2018-09-11T09:06:17.796Z,4976.00
2018-09-11T09:07:17.830Z,5056.00
2018-09-11T09:08:17.859Z,5060.00
2018-09-11T09:09:17.871Z,5184.00
2018-09-11T09:10:17.911Z,5212.00
2018-09-11T09:11:17.908Z,4996.00
2018-09-11T09:12:17.945Z,4320.00
2018-09-11T09:13:17.969Z,2872.00
2018-09-11T09:14:17.995Z,2344.00
2018-09-11T09:15:18.019Z,2312.00
2018-09-11T09:16:18.032Z,2316.00
2018-09-11T09:17:18.084Z,2256.00
2018-09-11T09:18:18.094Z,2084.00
2018-09-11T09:19:18.119Z,1840.00
2018-09-11T09:20:18.159Z,1700.00
2018-09-11T09:21:18.183Z,1652.00
2018-09-11T09:22:18.182Z,1608.00
2018-09-11T09:23:18.216Z,1564.00
2018-09-11T09:24:18.258Z,1520.00
2018-09-11T09:25:18.281Z,1428.00
2018-09-11T09:26:18.288Z,1356.00
2018-09-11T09:27:18.357Z,1292.00
2018-09-11T09:28:18.407Z,1264.00
2018-09-11T09:29:18.363Z,1248.00
2018-09-11T09:30:18.383Z,1220.00
2018-09-11T09:31:18.397Z,1112.00
2018-09-11T09:32:18.435Z,1076.00
2018-09-11T09:33:18.445Z,1072.00
2018-09-11T09:34:18.500Z,1076.00
2018-09-11T09:35:18.520Z,1116.00
2018-09-11T09:36:18.530Z,1148.00
2018-09-11T09:37:18.565Z,1184.00
2018-09-11T09:38:18.595Z,1144.00
2018-09-11T09:39:18.634Z,1116.00
2018-09-11T09:40:18.694Z,1108.00
2018-09-11T09:41:18.652Z,1116.00
2018-09-11T09:42:18.685Z,1116.00
2018-09-11T09:43:18.683Z,1120.00
2018-09-11T09:44:18.737Z,1124.00
2018-09-11T09:45:18.744Z,1120.00
2018-09-11T09:46:18.766Z,1120.00
2018-09-11T09:47:18.780Z,1092.00
2018-09-11T09:48:18.824Z,1068.00
2018-09-11T09:49:18.848Z,1032.00
2018-09-11T09:50:18.849Z,1016.00
2018-09-11T09:51:18.900Z,1020.00
2018-09-11T09:52:18.911Z,1072.00
2018-09-11T09:53:18.947Z,1068.00
2018-09-11T09:54:18.972Z,1104.00
2018-09-11T09:55:18.980Z,956.00
2018-09-11T09:56:19.017Z,892.00
2018-09-11T09:58:19.312Z,828.00
2018-09-11T09:59:19.314Z,808.00
2018-09-11T10:00:19.338Z,800.00
2018-09-11T10:01:19.365Z,804.00
2018-09-11T10:03:19.883Z,808.00
2018-09-11T10:04:20.993Z,828.00
2018-09-11T10:05:19.958Z,840.00
2018-09-11T10:06:19.956Z,784.00
2018-09-11T10:07:20.041Z,764.00
2018-09-11T10:08:21.066Z,784.00
2018-09-11T10:09:21.039Z,780.00
2018-09-11T10:10:20.675Z,756.00
2018-09-11T10:11:20.138Z,732.00
2018-09-11T10:12:20.121Z,708.00
2018-09-11T10:13:21.194Z,708.00
2018-09-11T10:14:21.230Z,740.00
2018-09-11T10:15:20.278Z,764.00
2018-09-11T10:16:20.256Z,720.00
2018-09-11T10:17:20.271Z,668.00
2018-09-11T10:18:21.288Z,636.00
2018-09-11T10:19:21.298Z,596.00
2018-09-11T10:20:20.314Z,580.00
2018-09-11T10:21:20.338Z,560.00
2018-09-11T10:22:20.359Z,540.00
2018-09-11T10:23:21.390Z,520.00
2018-09-11T10:24:21.416Z,496.00
2018-09-11T10:25:20.453Z,476.00
2018-09-11T10:26:20.487Z,452.00
2018-09-11T10:27:21.714Z,428.00
2018-09-11T10:28:21.529Z,412.00
2018-09-11T10:29:21.569Z,388.00
2018-09-11T10:30:20.586Z,376.00
2018-09-11T10:31:20.564Z,360.00
2018-09-11T10:32:20.584Z,348.00
2018-09-11T10:33:21.661Z,332.00
2018-09-11T10:34:21.678Z,316.00
2018-09-11T10:35:20.693Z,300.00
2018-09-11T10:36:20.688Z,288.00
2018-09-11T10:37:20.709Z,272.00
2018-09-11T10:38:21.775Z,256.00
2018-09-11T10:39:21.842Z,240.00
2018-09-11T10:40:20.775Z,228.00
2018-09-11T10:41:21.718Z,212.00
2018-09-11T10:42:20.847Z,200.00
2018-09-11T10:43:21.894Z,184.00
2018-09-11T10:44:21.874Z,188.00
2018-09-11T10:45:20.889Z,176.00
2018-09-11T10:46:20.953Z,168.00
2018-09-11T10:47:20.966Z,160.00
2018-09-11T10:48:21.995Z,148.00
2018-09-11T10:49:21.970Z,136.00
2018-09-11T10:50:21.024Z,124.00
2018-09-11T10:51:21.031Z,116.00
2018-09-11T10:52:21.028Z,104.00
2018-09-11T10:53:22.112Z,100.00
2018-09-11T10:54:22.111Z,92.00
2018-09-11T10:55:21.112Z,84.00
2018-09-11T10:56:21.175Z,80.00
2018-09-11T10:57:21.145Z,72.00
2018-09-11T10:58:22.246Z,64.00
2018-09-11T10:59:22.219Z,60.00
2018-09-11T11:00:21.300Z,56.00
2018-09-11T11:01:21.292Z,52.00
2018-09-11T11:02:21.270Z,44.00
2018-09-11T11:03:22.310Z,40.00
2018-09-11T11:04:22.331Z,36.00
2018-09-11T11:05:21.337Z,32.00
2018-09-11T11:06:21.408Z,32.00
2018-09-11T11:07:21.524Z,28.00
2018-09-11T11:08:22.957Z,24.00
2018-09-11T11:09:22.448Z,24.00
2018-09-11T11:10:21.491Z,24.00
2018-09-11T11:11:21.502Z,20.00
2018-09-11T11:12:21.507Z,20.00
2018-09-11T11:13:23.467Z,16.00
2018-09-11T11:14:22.647Z,16.00
2018-09-11T11:15:21.600Z,16.00
2018-09-11T11:16:21.633Z,12.00
2018-09-11T11:17:21.617Z,16.00
2018-09-11T11:18:22.706Z,16.00
